weather.gov     
National Weather Service

Terminal Aerodrome Forecast
NWS Homepage
This page is being discontinued on March 12, 2014.
The same data is available at this site. Please update your bookmarks.
Thank you, and we apologize for the inconvenience.
Please send an email to SR-SRH.Webmaster@noaa.gov with any concerns.


Current Version
Previous Version:    01  02  03  04  05  06  07  08  09  10  11  12  13  14  15  16  17  18  19  20  21  22  23  24  25  26  27  28  29  30  
   31  32  33  34  35  36  37  38  39  40  41  42  
[Printable]
682
FTUS41 KALY 020200 AAA
TAFGFL
TAF AMD
KGFL 020258Z 0203/0224 VRB03KT 3SM BR SCT050 SCT100 SCT250
      TEMPO 0203/0206 1SM BR BKN002 BKN050
     FM020600 00000KT 1/2SM FG VV002
     FM021300 20005KT 6SM BR VCFG SCT002 BKN025 BKN100
     FM021500 19005KT 6SM HZ BKN050 BKN100 PROB30 0215/0221 3SM
      -TSRA BR BKN045CB=


U.S. Dept. of Commerce
NOAA National Weather Service
1325 East West Highway
Silver Spring, MD 20910
E-mail: w-nws.webmaster@noaa.gov
Page last modified: May 16, 2007
NATIONAL WEATHER SERVICE: for Safety, for Work, for Fun - FOR LIFE